createdAt,value
2018-11-07T00:00:10.477Z,15.68
2018-11-07T00:02:39.689Z,16.77
2018-11-07T00:05:08.779Z,16.48
2018-11-07T00:07:37.925Z,16.57
2018-11-07T00:10:07.939Z,16.27
2018-11-07T00:12:37.107Z,15.43
2018-11-07T00:15:06.864Z,15.78
2018-11-07T00:17:35.986Z,15.55
2018-11-07T00:20:06.142Z,15.53
2018-11-07T00:22:35.617Z,15.58
2018-11-07T00:25:04.768Z,15.70
2018-11-07T00:27:33.895Z,14.80
2018-11-07T00:30:03.097Z,15.83
2018-11-07T00:32:32.225Z,15.08
2018-11-07T00:35:01.462Z,15.18
2018-11-07T00:37:31.395Z,15.18
2018-11-07T00:40:00.511Z,14.28
2018-11-07T00:42:29.685Z,15.00
2018-11-07T00:44:58.948Z,15.50
2018-11-07T00:47:28.559Z,15.13
2018-11-07T00:49:57.709Z,14.78
2018-11-07T00:52:26.853Z,14.07
2018-11-07T00:54:56.043Z,14.50
2018-11-07T00:57:25.138Z,14.58
2018-11-07T00:59:54.377Z,14.25
2018-11-07T01:02:23.478Z,13.20
2018-11-07T01:04:52.570Z,14.28
2018-11-07T01:07:21.612Z,14.05
2018-11-07T01:09:50.789Z,13.62
2018-11-07T01:12:19.971Z,14.50
2018-11-07T01:14:49.085Z,14.18
2018-11-07T01:17:18.209Z,13.08
2018-11-07T01:19:47.353Z,13.78
2018-11-07T01:22:16.665Z,13.78
2018-11-07T01:24:45.874Z,14.07
2018-11-07T01:27:15.125Z,14.15
2018-11-07T01:29:44.242Z,13.20
2018-11-07T01:32:14.173Z,13.43
2018-11-07T01:34:43.423Z,13.08
2018-11-07T01:37:12.589Z,13.13
2018-11-07T01:39:42.098Z,12.80
2018-11-07T01:42:11.301Z,13.70
2018-11-07T01:44:40.373Z,13.00
2018-11-07T01:47:09.750Z,13.30
2018-11-07T01:49:38.864Z,13.00
2018-11-07T01:52:08.125Z,12.25
2018-11-07T01:54:37.167Z,12.82
2018-11-07T01:57:06.267Z,13.32
2018-11-07T01:59:35.441Z,12.07
2018-11-07T02:02:04.557Z,12.15
2018-11-07T02:04:33.667Z,13.03
2018-11-07T02:07:02.942Z,12.50
2018-11-07T02:09:32.067Z,12.45
2018-11-07T02:12:01.257Z,12.80
2018-11-07T02:14:30.417Z,12.65
2018-11-07T02:16:59.569Z,12.55
2018-11-07T02:19:28.840Z,12.45
2018-11-07T02:21:58.049Z,11.80
2018-11-07T02:24:27.202Z,12.35
2018-11-07T02:26:56.574Z,12.58
2018-11-07T02:29:25.638Z,12.47
2018-11-07T02:31:54.740Z,11.90
2018-11-07T02:34:23.842Z,11.75
2018-11-07T02:36:52.988Z,11.70
2018-11-07T02:39:22.182Z,11.78
2018-11-07T02:41:51.788Z,12.20
2018-11-07T02:44:20.768Z,11.88
2018-11-07T02:46:50.070Z,11.93
2018-11-07T02:49:19.149Z,11.45
2018-11-07T02:51:48.326Z,11.43
2018-11-07T02:54:17.445Z,11.85
2018-11-07T02:56:46.462Z,11.45
2018-11-07T02:59:15.612Z,11.93
2018-11-07T03:01:45.194Z,11.10
2018-11-07T03:04:14.343Z,10.88
2018-11-07T03:06:43.568Z,11.50
2018-11-07T03:09:12.717Z,11.38
2018-11-07T03:11:41.909Z,11.10
2018-11-07T03:14:11.011Z,11.10
2018-11-07T03:16:40.543Z,12.00
2018-11-07T03:19:10.061Z,10.90
2018-11-07T03:21:39.199Z,10.70
2018-11-07T03:24:08.417Z,11.50
2018-11-07T03:26:37.551Z,10.38
2018-11-07T03:29:06.645Z,11.03
2018-11-07T03:31:35.857Z,11.28
2018-11-07T03:34:05.057Z,11.33
2018-11-07T03:36:34.260Z,10.18
2018-11-07T03:39:03.630Z,10.50
2018-11-07T03:41:32.967Z,10.70
2018-11-07T03:44:02.375Z,11.95
2018-11-07T03:46:31.519Z,9.98
2018-11-07T03:49:00.630Z,10.30
2018-11-07T03:51:29.733Z,10.80
2018-11-07T03:53:58.763Z,9.93
2018-11-07T03:56:27.913Z,10.43
2018-11-07T03:58:57.297Z,9.85
2018-11-07T04:01:26.610Z,9.88
2018-11-07T04:03:55.725Z,10.32
2018-11-07T04:06:24.857Z,9.60
2018-11-07T04:08:54.553Z,11.18
2018-11-07T04:11:23.606Z,9.83
2018-11-07T04:13:53.086Z,10.18
2018-11-07T04:16:22.238Z,9.63
2018-11-07T04:18:51.317Z,9.78
2018-11-07T04:21:21.235Z,10.35
2018-11-07T04:23:58.295Z,10.50
2018-11-07T04:26:27.455Z,10.40
2018-11-07T04:28:56.728Z,10.28
2018-11-07T04:31:25.913Z,10.55
2018-11-07T04:33:55.434Z,9.85
2018-11-07T04:36:25.091Z,10.63
2018-11-07T04:38:54.923Z,9.53
2018-11-07T04:41:24.438Z,10.55
2018-11-07T04:43:53.889Z,10.55
2018-11-07T04:46:23.030Z,10.28
2018-11-07T04:48:52.995Z,10.25
2018-11-07T04:51:22.481Z,9.88
2018-11-07T04:53:51.587Z,9.90
2018-11-07T04:56:20.681Z,10.00
2018-11-07T04:58:49.798Z,9.75
2018-11-07T05:01:18.896Z,9.58
2018-11-07T05:03:48.593Z,10.18
2018-11-07T05:06:17.596Z,9.35
2018-11-07T05:08:47.018Z,9.90
2018-11-07T05:11:16.220Z,9.48
2018-11-07T05:13:45.408Z,9.33
2018-11-07T05:16:14.619Z,9.48
2018-11-07T05:18:44.117Z,9.63
2018-11-07T05:21:13.915Z,9.80
2018-11-07T05:23:43.439Z,9.25
2018-11-07T05:26:12.720Z,9.55
2018-11-07T05:28:41.778Z,10.43
2018-11-07T05:31:10.926Z,9.25
2018-11-07T05:33:40.111Z,9.70
2018-11-07T05:36:09.912Z,9.48
2018-11-07T05:38:39.064Z,10.08
2018-11-07T05:41:08.601Z,9.05
2018-11-07T05:43:37.770Z,9.85
2018-11-07T05:46:07.702Z,9.83
2018-11-07T05:48:36.738Z,9.33
2018-11-07T05:51:06.541Z,8.93
2018-11-07T05:53:35.824Z,8.98
2018-11-07T05:56:04.964Z,9.03
2018-11-07T05:58:34.035Z,8.88
2018-11-07T06:01:03.185Z,9.00
2018-11-07T06:03:32.335Z,9.00
2018-11-07T06:06:01.534Z,9.03
2018-11-07T06:08:30.930Z,9.28
2018-11-07T06:11:00.034Z,9.20
2018-11-07T06:13:29.128Z,9.63
2018-11-07T06:15:58.258Z,9.40
2018-11-07T06:18:27.387Z,9.53
2018-11-07T06:20:56.550Z,9.88
2018-11-07T06:23:25.708Z,9.48
2018-11-07T06:25:55.179Z,9.35
2018-11-07T06:28:24.410Z,10.05
2018-11-07T06:30:53.609Z,10.58
2018-11-07T06:33:22.849Z,10.45
2018-11-07T06:35:52.401Z,9.70
2018-11-07T06:38:22.351Z,10.15
2018-11-07T06:40:51.457Z,9.33
2018-11-07T06:43:20.617Z,9.93
2018-11-07T06:45:49.725Z,10.68
2018-11-07T06:48:18.830Z,10.10
2018-11-07T06:50:47.961Z,10.93
2018-11-07T06:53:17.141Z,10.63
2018-11-07T06:55:46.289Z,10.70
2018-11-07T06:58:15.419Z,10.25
2018-11-07T07:00:44.633Z,10.90
2018-11-07T07:03:13.719Z,11.08
2018-11-07T07:05:43.015Z,10.43
2018-11-07T07:08:12.134Z,10.85
2018-11-07T07:10:41.206Z,10.48
2018-11-07T07:13:10.366Z,10.20
2018-11-07T07:15:39.511Z,10.70
2018-11-07T07:18:09.093Z,10.90
2018-11-07T07:20:38.237Z,10.28
2018-11-07T07:23:07.394Z,10.95
2018-11-07T07:25:36.571Z,11.40
2018-11-07T07:28:06.078Z,10.95
2018-11-07T07:30:35.280Z,10.55
2018-11-07T07:33:04.393Z,10.45
2018-11-07T07:35:33.509Z,10.78
2018-11-07T07:38:02.634Z,11.48
2018-11-07T07:40:31.799Z,10.82
2018-11-07T07:43:00.865Z,11.25
2018-11-07T07:45:30.104Z,10.63
2018-11-07T07:47:59.280Z,10.55
2018-11-07T07:50:28.425Z,10.10
2018-11-07T07:52:57.592Z,10.30
2018-11-07T07:55:26.685Z,10.28
2018-11-07T07:57:55.807Z,10.55
2018-11-07T08:00:24.868Z,10.40
2018-11-07T08:02:54.246Z,10.35
2018-11-07T08:05:23.338Z,10.88
2018-11-07T08:07:52.483Z,10.13
2018-11-07T08:10:22.350Z,10.50
2018-11-07T08:12:52.020Z,9.58
2018-11-07T08:15:21.197Z,9.60
2018-11-07T08:17:50.492Z,10.05
2018-11-07T08:20:19.737Z,9.58
2018-11-07T08:22:49.454Z,10.48
2018-11-07T08:25:19.025Z,9.85
2018-11-07T08:27:48.199Z,10.60
2018-11-07T08:30:19.101Z,9.78
2018-11-07T08:35:48.221Z,9.43
2018-11-07T08:38:17.366Z,10.03
2018-11-07T08:40:46.584Z,9.23
2018-11-07T08:43:15.686Z,9.10
2018-11-07T08:45:44.770Z,9.28
2018-11-07T08:48:13.919Z,9.80
2018-11-07T08:50:42.850Z,10.43
2018-11-07T08:53:11.990Z,10.15
2018-11-07T08:55:41.251Z,10.10
2018-11-07T08:58:10.345Z,9.73
2018-11-07T09:00:39.414Z,9.70
2018-11-07T09:03:08.507Z,9.80
2018-11-07T09:05:37.634Z,9.80
2018-11-07T09:08:06.686Z,9.28
2018-11-07T09:10:35.826Z,10.05
2018-11-07T09:13:04.909Z,9.60
2018-11-07T09:15:34.053Z,8.68
2018-11-07T09:18:03.119Z,9.10
2018-11-07T09:20:32.202Z,9.48
2018-11-07T09:23:01.354Z,9.20
2018-11-07T09:25:30.494Z,9.70
2018-11-07T09:27:59.585Z,9.73
2018-11-07T09:30:28.708Z,8.98
2018-11-07T09:32:57.818Z,8.95
2018-11-07T09:35:27.001Z,9.70
2018-11-07T09:37:56.135Z,8.85
2018-11-07T09:40:25.375Z,9.68
2018-11-07T09:42:54.475Z,9.38
2018-11-07T09:45:23.906Z,8.98
2018-11-07T09:47:52.963Z,9.80
2018-11-07T09:50:22.166Z,8.63
2018-11-07T09:52:51.317Z,9.25
2018-11-07T09:55:21.291Z,9.53
2018-11-07T09:57:50.381Z,9.10
2018-11-07T10:00:21.145Z,9.00
2018-11-07T10:02:50.594Z,8.88
2018-11-07T10:05:20.794Z,8.73
2018-11-07T10:07:50.011Z,8.88
2018-11-07T10:10:21.351Z,10.28
2018-11-07T10:12:50.795Z,9.43
2018-11-07T10:15:20.141Z,9.03
2018-11-07T10:17:49.647Z,9.58
2018-11-07T10:20:20.124Z,9.10
2018-11-07T10:22:49.596Z,9.23
2018-11-07T10:25:18.986Z,9.63
2018-11-07T10:27:48.471Z,9.08
2018-11-07T10:30:18.889Z,9.10
2018-11-07T10:32:48.862Z,8.73
2018-11-07T10:35:18.032Z,9.48
2018-11-07T10:37:47.179Z,9.43
2018-11-07T10:40:19.726Z,9.03
2018-11-07T10:42:49.169Z,8.55
2018-11-07T10:45:18.349Z,9.30
2018-11-07T10:47:48.156Z,8.13
2018-11-07T10:50:18.276Z,8.75
2018-11-07T10:52:47.861Z,8.90
2018-11-07T10:55:17.590Z,8.58
2018-11-07T10:57:46.773Z,9.50
2018-11-07T11:00:21.378Z,8.93
2018-11-07T11:02:55.548Z,8.98
2018-11-07T11:05:24.674Z,8.70
2018-11-07T11:07:54.039Z,8.78
2018-11-07T11:10:23.261Z,8.85
2018-11-07T11:12:52.428Z,8.53
2018-11-07T11:15:21.573Z,8.80
2018-11-07T11:17:50.631Z,8.05
2018-11-07T11:20:19.756Z,8.60
2018-11-07T11:22:48.897Z,8.65
2018-11-07T11:25:18.107Z,8.58
2018-11-07T11:27:47.274Z,8.50
2018-11-07T11:30:16.535Z,8.73
2018-11-07T11:32:45.579Z,7.67
2018-11-07T11:35:14.956Z,8.83
2018-11-07T11:37:43.991Z,8.58
2018-11-07T11:40:14.253Z,8.48
2018-11-07T11:42:44.367Z,8.33
2018-11-07T11:45:14.681Z,8.25
2018-11-07T11:47:44.250Z,8.18
2018-11-07T11:50:15.098Z,8.20
2018-11-07T11:52:45.206Z,8.18
2018-11-07T11:55:14.335Z,8.28
2018-11-07T11:57:44.026Z,7.83
2018-11-07T12:00:16.171Z,8.28
2018-11-07T12:02:45.741Z,8.30
2018-11-07T12:05:15.777Z,7.83
2018-11-07T12:07:44.863Z,8.20
2018-11-07T12:10:21.090Z,8.25
2018-11-07T12:12:54.441Z,8.63
2018-11-07T12:15:24.751Z,8.23
2018-11-07T12:17:54.304Z,8.08
2018-11-07T12:20:23.619Z,8.35
2018-11-07T12:22:52.909Z,7.72
2018-11-07T12:25:22.589Z,8.20
2018-11-07T12:27:51.669Z,8.35
2018-11-07T12:30:22.024Z,8.20
2018-11-07T12:32:52.315Z,8.78
2018-11-07T12:35:22.109Z,8.55
2018-11-07T12:37:51.269Z,8.03
2018-11-07T12:40:20.795Z,8.20
2018-11-07T12:42:50.043Z,8.05
2018-11-07T12:45:19.267Z,7.75
2018-11-07T12:47:48.552Z,7.72
2018-11-07T12:50:20.112Z,8.33
2018-11-07T12:52:49.262Z,7.65
2018-11-07T12:55:19.113Z,8.20
2018-11-07T12:57:48.292Z,7.67
2018-11-07T13:00:20.708Z,8.20
2018-11-07T13:02:49.708Z,7.55
2018-11-07T13:05:19.702Z,7.87
2018-11-07T13:07:49.387Z,8.03
2018-11-07T13:10:19.721Z,7.90
2018-11-07T13:12:49.970Z,7.78
2018-11-07T13:15:19.551Z,7.87
2018-11-07T13:17:49.538Z,8.23
2018-11-07T13:20:20.214Z,7.97
2018-11-07T13:22:50.612Z,8.20
2018-11-07T13:25:19.959Z,7.87
2018-11-07T13:27:49.161Z,8.40
2018-11-07T13:30:19.531Z,7.05
2018-11-07T13:32:48.716Z,7.87
2018-11-07T13:35:18.755Z,7.17
2018-11-07T13:37:48.719Z,7.62
2018-11-07T13:40:19.433Z,7.80
2018-11-07T13:42:48.655Z,7.60
2018-11-07T13:45:19.385Z,7.75
2018-11-07T13:47:49.526Z,7.83
2018-11-07T13:50:18.955Z,7.80
2018-11-07T13:52:48.206Z,7.55
2018-11-07T13:55:17.396Z,7.67
2018-11-07T13:57:46.793Z,7.72
2018-11-07T14:00:21.553Z,7.62
2018-11-07T14:02:51.289Z,7.60
2018-11-07T14:05:20.522Z,7.67
2018-11-07T14:07:49.665Z,7.53
2018-11-07T14:10:19.695Z,7.95
2018-11-07T14:12:49.153Z,6.97
2018-11-07T14:15:18.266Z,7.05
2018-11-07T14:17:47.623Z,8.03
2018-11-07T14:20:16.747Z,7.85
2018-11-07T14:22:45.843Z,7.83
2018-11-07T14:25:15.198Z,7.05
2018-11-07T14:27:44.525Z,7.60
2018-11-07T14:30:16.488Z,7.28
2018-11-07T14:32:51.621Z,6.67
2018-11-07T14:35:20.927Z,7.45
2018-11-07T14:37:50.202Z,7.15
2018-11-07T14:40:19.441Z,7.42
2018-11-07T14:42:48.567Z,7.45
2018-11-07T14:45:17.667Z,7.75
2018-11-07T14:47:46.801Z,6.67
2018-11-07T14:50:15.859Z,6.83
2018-11-07T14:52:44.935Z,8.10
2018-11-07T14:55:14.353Z,7.22
2018-11-07T14:57:43.870Z,7.70
2018-11-07T15:00:15.355Z,7.37
2018-11-07T15:02:45.634Z,7.22
2018-11-07T15:05:15.650Z,8.03
2018-11-07T15:07:45.318Z,8.20
2018-11-07T15:10:15.423Z,7.70
2018-11-07T15:12:44.701Z,8.68
2018-11-07T15:15:15.948Z,9.13
2018-11-07T15:17:45.092Z,9.08
2018-11-07T15:20:15.190Z,9.15
2018-11-07T15:22:44.413Z,9.48
2018-11-07T15:25:14.739Z,9.13
2018-11-07T15:27:44.874Z,10.08
2018-11-07T15:30:14.994Z,9.68
2018-11-07T15:32:44.566Z,9.13
2018-11-07T15:35:13.983Z,10.23
2018-11-07T15:37:43.287Z,9.83
2018-11-07T15:40:13.937Z,9.60
2018-11-07T15:42:43.627Z,9.63
2018-11-07T15:45:15.797Z,9.23
2018-11-07T15:47:45.109Z,10.18
2018-11-07T15:50:19.474Z,9.65
2018-11-07T15:52:48.975Z,10.10
2018-11-07T15:55:18.473Z,9.40
2018-11-07T15:57:48.028Z,9.93
2018-11-07T16:00:18.149Z,9.68
2018-11-07T16:02:47.372Z,8.83
2018-11-07T16:05:17.081Z,8.58
2018-11-07T16:07:46.221Z,8.93
2018-11-07T16:10:16.123Z,8.75
2018-11-07T16:12:45.266Z,9.80
2018-11-07T16:15:15.995Z,9.85
2018-11-07T16:17:45.306Z,9.03
2018-11-07T16:20:16.072Z,9.33
2018-11-07T16:22:46.036Z,9.18
2018-11-07T16:25:15.420Z,9.38
2018-11-07T16:27:45.031Z,9.48
2018-11-07T16:30:16.483Z,9.20
2018-11-07T16:32:45.617Z,9.58
2018-11-07T16:35:15.130Z,9.70
2018-11-07T16:37:44.568Z,10.08
2018-11-07T16:40:15.131Z,9.83
2018-11-07T16:42:44.791Z,9.25
2018-11-07T16:45:14.980Z,9.48
2018-11-07T16:47:44.463Z,9.88
2018-11-07T16:50:14.649Z,9.50
2018-11-07T16:52:43.930Z,9.30
2018-11-07T16:55:13.465Z,9.68
2018-11-07T16:57:43.401Z,9.50
2018-11-07T17:00:15.092Z,9.03
2018-11-07T17:02:44.909Z,9.53
2018-11-07T17:05:14.712Z,10.70
2018-11-07T17:07:44.083Z,10.10
2018-11-07T17:10:13.629Z,9.70
2018-11-07T17:12:43.128Z,9.20
2018-11-07T17:15:12.437Z,9.70
2018-11-07T17:17:41.638Z,9.30
2018-11-07T17:20:12.399Z,9.23
2018-11-07T17:22:41.849Z,9.08
2018-11-07T17:25:13.187Z,9.58
2018-11-07T17:27:43.691Z,9.73
2018-11-07T17:30:13.595Z,10.35
2018-11-07T17:32:43.050Z,9.93
2018-11-07T17:35:14.585Z,9.75
2018-11-07T17:37:44.268Z,9.90
2018-11-07T17:40:15.542Z,10.23
2018-11-07T17:42:45.632Z,9.15
2018-11-07T17:45:16.360Z,9.33
2018-11-07T17:47:45.913Z,9.83
2018-11-07T17:50:16.712Z,8.98
2018-11-07T17:52:45.873Z,9.15
2018-11-07T17:55:16.059Z,9.90
2018-11-07T17:57:45.339Z,9.75
2018-11-07T18:00:18.888Z,9.85
2018-11-07T18:02:48.087Z,10.03
2018-11-07T18:05:17.852Z,10.20
2018-11-07T18:07:47.066Z,10.08
2018-11-07T18:10:17.694Z,9.90
2018-11-07T18:12:47.345Z,9.55
2018-11-07T18:15:18.058Z,9.55
2018-11-07T18:17:47.279Z,9.80
2018-11-07T18:20:17.305Z,8.93
2018-11-07T18:22:46.524Z,9.40
2018-11-07T18:25:16.505Z,9.40
2018-11-07T18:27:45.681Z,9.68
2018-11-07T18:30:16.078Z,9.80
2018-11-07T18:32:46.078Z,10.13
2018-11-07T18:35:17.727Z,10.20
2018-11-07T18:37:47.210Z,8.98
2018-11-07T18:40:18.330Z,10.05
2018-11-07T18:42:48.877Z,10.20
2018-11-07T18:45:18.506Z,9.83
2018-11-07T18:47:48.033Z,9.10
2018-11-07T18:50:19.258Z,9.13
2018-11-07T18:52:49.370Z,9.83
2018-11-07T18:55:18.866Z,9.70
2018-11-07T18:57:48.224Z,10.40
2018-11-07T19:00:18.771Z,9.58
2018-11-07T19:02:48.768Z,10.13
2018-11-07T19:05:18.186Z,9.28
2018-11-07T19:07:48.615Z,9.95
2018-11-07T19:10:19.942Z,9.68
2018-11-07T19:12:50.941Z,9.98
2018-11-07T19:15:20.713Z,10.58
2018-11-07T19:17:51.022Z,11.00
2018-11-07T19:20:20.568Z,10.05
2018-11-07T19:22:49.759Z,10.10
2018-11-07T19:25:20.201Z,9.53
2018-11-07T19:27:49.727Z,9.90
2018-11-07T19:30:20.945Z,9.40
2018-11-07T19:32:51.977Z,10.05
2018-11-07T19:35:21.621Z,9.63
2018-11-07T19:37:51.337Z,9.50
2018-11-07T19:40:24.059Z,9.18
2018-11-07T19:42:53.246Z,9.60
2018-11-07T19:45:23.209Z,9.25
2018-11-07T19:47:52.626Z,9.38
2018-11-07T19:50:22.286Z,8.78
2018-11-07T19:52:52.325Z,8.98
2018-11-07T19:55:23.378Z,8.73
2018-11-07T19:57:57.365Z,8.85
2018-11-07T20:00:26.641Z,8.93
2018-11-07T20:02:56.291Z,8.85
2018-11-07T20:05:25.921Z,9.45
2018-11-07T20:07:55.472Z,8.38
2018-11-07T20:10:55.583Z,8.55
2018-11-07T20:13:24.942Z,9.63
2018-11-07T20:15:54.550Z,9.23
2018-11-07T20:18:23.737Z,8.55
2018-11-07T20:20:52.871Z,8.58
2018-11-07T20:23:22.092Z,8.78
2018-11-07T20:25:51.496Z,8.50
2018-11-07T20:28:20.700Z,9.13
2018-11-07T20:30:50.701Z,8.73
2018-11-07T20:33:19.866Z,8.65
2018-11-07T20:35:49.278Z,8.88
2018-11-07T20:38:18.256Z,8.90
2018-11-07T20:40:47.457Z,9.15
2018-11-07T20:43:16.680Z,8.78
2018-11-07T20:45:46.034Z,8.28
2018-11-07T20:48:15.211Z,8.65
2018-11-07T20:50:44.376Z,8.28
2018-11-07T20:53:13.593Z,7.87
2018-11-07T20:55:43.207Z,8.20
2018-11-07T20:58:12.935Z,9.10
2018-11-07T21:00:42.383Z,8.58
2018-11-07T21:03:11.726Z,7.85
2018-11-07T21:05:41.117Z,8.60
2018-11-07T21:08:10.570Z,9.13
2018-11-07T21:10:39.817Z,8.40
2018-11-07T21:13:09.138Z,8.20
2018-11-07T21:15:38.441Z,8.78
2018-11-07T21:18:07.620Z,9.05
2018-11-07T21:20:36.845Z,9.03
2018-11-07T21:23:06.295Z,8.58
2018-11-07T21:25:35.366Z,8.35
2018-11-07T21:28:04.484Z,8.55
2018-11-07T21:30:33.557Z,8.73
2018-11-07T21:33:02.823Z,7.90
2018-11-07T21:35:32.292Z,9.18
2018-11-07T21:38:01.506Z,8.75
2018-11-07T21:40:30.707Z,8.98
2018-11-07T21:42:59.821Z,9.03
2018-11-07T21:45:28.991Z,8.40
2018-11-07T21:47:58.213Z,9.03
2018-11-07T21:50:27.416Z,8.85
2018-11-07T21:52:56.624Z,8.68
2018-11-07T21:55:25.899Z,9.33
2018-11-07T21:57:55.041Z,8.50
2018-11-07T22:00:24.600Z,8.90
2018-11-07T22:02:53.731Z,8.55
2018-11-07T22:05:23.265Z,8.40
2018-11-07T22:07:52.312Z,8.80
2018-11-07T22:10:21.394Z,8.18
2018-11-07T22:12:50.456Z,9.23
2018-11-07T22:15:19.557Z,9.13
2018-11-07T22:17:48.648Z,8.50
2018-11-07T22:20:19.740Z,8.25
2018-11-07T22:22:48.818Z,9.15
2018-11-07T22:25:17.920Z,8.88
2018-11-07T22:27:47.102Z,8.88
2018-11-07T22:30:17.180Z,8.33
2018-11-07T22:32:46.465Z,8.83
2018-11-07T22:35:17.015Z,8.73
2018-11-07T22:37:46.711Z,8.33
2018-11-07T22:40:17.308Z,8.33
2018-11-07T22:42:47.442Z,8.58
2018-11-07T22:45:16.698Z,8.75
2018-11-07T22:47:46.229Z,8.03
2018-11-07T22:50:16.089Z,8.50
2018-11-07T22:52:45.754Z,8.85
2018-11-07T22:55:15.055Z,8.65
2018-11-07T22:57:44.187Z,8.18
2018-11-07T23:00:18.718Z,8.25
2018-11-07T23:02:48.390Z,8.23
2018-11-07T23:05:18.069Z,8.48
2018-11-07T23:07:47.435Z,8.65
2018-11-07T23:10:16.424Z,8.60
2018-11-07T23:12:45.715Z,8.08
2018-11-07T23:15:20.886Z,8.55
2018-11-07T23:17:50.583Z,7.70
2018-11-07T23:20:19.872Z,7.87
2018-11-07T23:22:49.032Z,8.15
2018-11-07T23:25:18.330Z,8.50
2018-11-07T23:27:47.592Z,8.08
2018-11-07T23:30:16.756Z,8.40
2018-11-07T23:32:46.009Z,7.90
2018-11-07T23:35:15.189Z,8.58
2018-11-07T23:37:44.326Z,8.58
2018-11-07T23:40:13.797Z,8.85
2018-11-07T23:42:43.290Z,8.33
2018-11-07T23:45:12.445Z,8.70
2018-11-07T23:47:41.528Z,8.68
2018-11-07T23:50:10.660Z,8.85
2018-11-07T23:52:45.157Z,8.88
2018-11-07T23:55:14.255Z,8.83
2018-11-07T23:57:43.369Z,8.78
